createdAt,value
2022-10-28T00:01:28.652Z,15.10
2022-10-28T00:03:58.070Z,15.10
2022-10-28T00:06:36.420Z,15.10
2022-10-28T00:09:05.635Z,15.10
2022-10-28T00:11:36.077Z,14.90
2022-10-28T00:14:05.050Z,14.90
2022-10-28T00:16:34.152Z,14.80
2022-10-28T00:19:02.197Z,14.70
2022-10-28T00:21:31.166Z,14.60
2022-10-28T00:23:58.273Z,14.60
2022-10-28T00:26:27.152Z,14.50
2022-10-28T00:28:56.574Z,14.50
2022-10-28T00:31:25.524Z,14.50
2022-10-28T00:33:53.068Z,14.50
2022-10-28T00:36:26.085Z,14.50
2022-10-28T00:38:54.053Z,14.50
2022-10-28T00:41:24.797Z,14.60
2022-10-28T00:43:56.190Z,14.60
2022-10-28T00:46:42.502Z,14.60
2022-10-28T00:49:30.235Z,14.50
2022-10-28T00:52:01.908Z,14.60
2022-10-28T00:54:30.005Z,14.60
2022-10-28T00:56:59.909Z,14.60
2022-10-28T00:59:29.626Z,14.60
2022-10-28T01:01:56.431Z,14.50
2022-10-28T01:04:23.435Z,14.50
2022-10-28T01:06:51.069Z,14.40
2022-10-28T01:09:17.827Z,14.40
2022-10-28T01:12:00.946Z,14.40
2022-10-28T01:15:10.124Z,14.30
2022-10-28T01:17:47.741Z,14.30
2022-10-28T01:20:56.852Z,14.20
2022-10-28T01:23:41.978Z,14.20
2022-10-28T01:26:41.980Z,14.10
2022-10-28T01:29:29.978Z,14.10
2022-10-28T01:32:06.515Z,14.10
2022-10-28T01:34:52.953Z,14.00
2022-10-28T01:37:32.749Z,14.00
2022-10-28T01:40:10.956Z,14.00
2022-10-28T01:42:57.244Z,14.00
2022-10-28T01:45:47.642Z,14.00
2022-10-28T01:48:22.763Z,13.90
2022-10-28T01:51:08.304Z,14.00
2022-10-28T01:53:38.805Z,14.00
2022-10-28T01:56:13.161Z,14.00
2022-10-28T01:58:40.637Z,14.10
2022-10-28T02:01:10.183Z,14.10
2022-10-28T02:03:37.097Z,14.20
2022-10-28T02:06:07.704Z,14.20
2022-10-28T02:08:52.660Z,14.30
2022-10-28T02:11:27.520Z,14.30
2022-10-28T02:14:23.697Z,14.10
2022-10-28T02:17:06.577Z,14.00
2022-10-28T02:19:51.457Z,13.90
2022-10-28T02:22:36.290Z,13.90
2022-10-28T02:25:10.053Z,13.90
2022-10-28T02:27:57.876Z,13.90
2022-10-28T02:30:32.132Z,14.00
2022-10-28T02:33:04.855Z,14.00
2022-10-28T02:35:52.419Z,14.00
2022-10-28T02:38:29.625Z,14.00
2022-10-28T02:41:02.534Z,14.00
2022-10-28T02:43:32.713Z,13.90
2022-10-28T02:46:02.129Z,13.90
2022-10-28T02:48:34.922Z,13.90
2022-10-28T02:51:08.331Z,13.90
2022-10-28T02:54:02.565Z,13.80
2022-10-28T02:56:33.420Z,13.70
2022-10-28T02:59:00.297Z,13.60
2022-10-28T03:01:26.940Z,13.50
2022-10-28T03:03:53.634Z,13.50
2022-10-28T03:06:20.294Z,13.50
2022-10-28T03:08:46.950Z,13.50
2022-10-28T03:11:13.541Z,13.50
2022-10-28T03:13:40.192Z,13.50
2022-10-28T03:16:06.750Z,13.50
2022-10-28T03:18:33.335Z,13.50
2022-10-28T03:20:59.908Z,13.50
2022-10-28T03:23:26.481Z,13.40
2022-10-28T03:25:53.118Z,13.30
2022-10-28T03:28:19.678Z,13.30
2022-10-28T03:30:46.260Z,13.40
2022-10-28T03:33:12.900Z,13.40
2022-10-28T03:35:39.589Z,13.40
2022-10-28T03:38:06.286Z,13.40
2022-10-28T03:40:34.166Z,13.40
2022-10-28T03:43:00.840Z,13.40
2022-10-28T03:47:59.153Z,13.30
2022-10-28T03:50:25.785Z,13.30
2022-10-28T03:52:52.398Z,13.40
2022-10-28T03:55:18.968Z,13.40
2022-10-28T03:57:45.500Z,13.40
2022-10-28T04:00:12.774Z,13.60
2022-10-28T04:02:39.382Z,13.70
2022-10-28T04:05:06.278Z,13.80
2022-10-28T04:07:32.888Z,13.80
2022-10-28T04:09:59.474Z,13.90
2022-10-28T04:12:26.053Z,14.00
2022-10-28T04:14:53.525Z,14.00
2022-10-28T04:17:20.160Z,14.00
2022-10-28T04:19:46.766Z,13.90
2022-10-28T04:22:13.350Z,13.90
2022-10-28T04:24:39.905Z,13.80
2022-10-28T04:27:06.615Z,13.80
2022-10-28T04:29:33.254Z,13.70
2022-10-28T04:31:59.886Z,13.80
2022-10-28T04:34:26.557Z,13.90
2022-10-28T04:36:53.249Z,13.90
2022-10-28T04:39:19.980Z,13.90
2022-10-28T04:41:46.609Z,13.90
2022-10-28T04:44:13.208Z,13.90
2022-10-28T04:46:40.742Z,13.90
2022-10-28T04:49:07.516Z,13.90
2022-10-28T04:51:34.112Z,13.90
2022-10-28T04:54:00.696Z,13.90
2022-10-28T04:56:27.422Z,14.00
2022-10-28T04:58:54.001Z,14.00
2022-10-28T05:01:20.715Z,14.20
2022-10-28T05:03:47.456Z,14.30
2022-10-28T05:06:14.051Z,14.30
2022-10-28T05:08:40.612Z,14.40
2022-10-28T05:11:07.166Z,14.40
2022-10-28T05:13:33.724Z,14.40
2022-10-28T05:16:00.369Z,14.40
2022-10-28T05:18:26.952Z,14.30
2022-10-28T05:20:54.958Z,14.30
2022-10-28T05:23:25.784Z,14.40
2022-10-28T05:25:55.334Z,14.40
2022-10-28T05:28:21.920Z,14.50
2022-10-28T05:30:48.562Z,14.50
2022-10-28T05:33:15.179Z,14.50
2022-10-28T05:35:41.896Z,14.50
2022-10-28T05:38:08.646Z,14.50
2022-10-28T05:40:35.253Z,14.40
2022-10-28T05:43:02.033Z,14.40
2022-10-28T05:47:56.896Z,14.30
2022-10-28T05:50:23.984Z,14.30
2022-10-28T05:52:53.084Z,14.20
2022-10-28T05:55:21.741Z,14.20
2022-10-28T05:57:49.853Z,14.30
2022-10-28T06:00:18.587Z,14.20
2022-10-28T06:02:45.239Z,14.20
2022-10-28T06:05:12.130Z,14.20
2022-10-28T06:07:40.078Z,14.20
2022-10-28T06:10:08.724Z,14.10
2022-10-28T06:15:06.330Z,14.10
2022-10-28T06:17:33.010Z,14.10
2022-10-28T06:19:59.720Z,14.10
2022-10-28T06:22:26.399Z,14.10
2022-10-28T06:24:53.013Z,14.10
2022-10-28T06:27:19.637Z,14.20
2022-10-28T06:29:46.227Z,14.20
2022-10-28T06:32:12.890Z,14.20
2022-10-28T06:34:39.623Z,14.20
2022-10-28T06:37:06.193Z,14.20
2022-10-28T06:39:32.947Z,14.20
2022-10-28T06:41:59.734Z,14.30
2022-10-28T06:44:26.408Z,14.30
2022-10-28T06:46:55.753Z,14.40
2022-10-28T06:49:22.434Z,14.40
2022-10-28T06:51:49.853Z,14.50
2022-10-28T06:54:16.503Z,14.60
2022-10-28T06:56:45.227Z,14.70
2022-10-28T06:59:11.838Z,14.90
2022-10-28T07:01:38.581Z,15.10
2022-10-28T07:04:06.186Z,15.30
2022-10-28T07:06:32.799Z,15.40
2022-10-28T07:08:59.391Z,15.60
2022-10-28T07:11:26.000Z,15.70
2022-10-28T07:13:52.590Z,15.70
2022-10-28T07:16:19.157Z,15.70
2022-10-28T07:18:45.785Z,15.60
2022-10-28T07:21:13.968Z,15.60
2022-10-28T07:23:40.611Z,15.50
2022-10-28T07:26:07.283Z,15.40
2022-10-28T07:28:33.954Z,15.40
2022-10-28T07:31:01.819Z,15.30
2022-10-28T07:33:28.507Z,15.40
2022-10-28T07:35:55.081Z,15.60
2022-10-28T07:38:22.457Z,15.80
2022-10-28T07:40:49.128Z,16.00
2022-10-28T07:43:15.754Z,16.00
2022-10-28T07:45:42.388Z,16.00
2022-10-28T07:48:09.590Z,16.00
2022-10-28T07:50:36.266Z,16.10
2022-10-28T07:53:02.939Z,16.40
2022-10-28T07:55:29.557Z,16.80
2022-10-28T07:57:56.602Z,17.20
2022-10-28T08:00:23.441Z,17.30
2022-10-28T08:02:50.266Z,17.30
2022-10-28T08:05:17.528Z,17.20
2022-10-28T08:07:44.120Z,17.30
2022-10-28T08:10:10.772Z,17.50
2022-10-28T08:12:37.368Z,17.70
2022-10-28T08:15:04.724Z,18.00
2022-10-28T08:17:31.479Z,18.20
2022-10-28T08:19:58.227Z,18.20
2022-10-28T08:22:24.935Z,18.00
2022-10-28T08:24:51.509Z,18.00
2022-10-28T08:27:18.075Z,18.00
2022-10-28T08:29:44.647Z,18.00
2022-10-28T08:32:11.181Z,18.20
2022-10-28T08:34:40.783Z,18.40
2022-10-28T08:37:10.300Z,18.60
2022-10-28T08:39:36.939Z,18.80
2022-10-28T08:42:35.307Z,19.00
2022-10-28T08:45:22.053Z,19.30
2022-10-28T08:48:15.103Z,19.50
2022-10-28T08:50:55.946Z,19.70
2022-10-28T08:53:32.082Z,20.20
2022-10-28T08:56:14.170Z,20.80
2022-10-28T08:58:44.587Z,21.40
2022-10-28T09:01:20.722Z,21.70
2022-10-28T09:03:51.309Z,21.90
2022-10-28T09:06:17.900Z,21.90
2022-10-28T09:08:48.363Z,21.90
2022-10-28T09:11:34.351Z,21.70
2022-10-28T09:14:22.179Z,21.40
2022-10-28T09:16:57.946Z,21.30
2022-10-28T09:19:46.980Z,21.40
2022-10-28T09:22:21.356Z,21.90
2022-10-28T09:25:17.597Z,22.10
2022-10-28T09:28:07.469Z,22.30
2022-10-28T09:30:50.066Z,22.70
2022-10-28T09:33:36.976Z,23.10
2022-10-28T09:36:06.033Z,23.50
2022-10-28T09:38:40.175Z,23.90
2022-10-28T09:41:14.510Z,24.10
2022-10-28T09:43:50.554Z,24.20
2022-10-28T09:46:18.780Z,24.20
2022-10-28T09:48:55.605Z,24.20
2022-10-28T09:51:45.298Z,24.30
2022-10-28T09:54:13.632Z,24.40
2022-10-28T09:56:40.871Z,24.40
2022-10-28T09:59:11.789Z,24.00
2022-10-28T10:01:39.718Z,23.80
2022-10-28T10:04:20.942Z,23.80
2022-10-28T10:06:55.206Z,24.10
2022-10-28T10:09:26.571Z,24.60
2022-10-28T10:11:58.407Z,25.10
2022-10-28T10:14:31.267Z,25.60
2022-10-28T10:17:03.104Z,26.10
2022-10-28T10:20:03.061Z,26.60
2022-10-28T10:22:37.294Z,26.90
2022-10-28T10:25:22.638Z,27.10
2022-10-28T10:28:04.718Z,27.30
2022-10-28T10:30:45.938Z,27.50
2022-10-28T10:33:26.166Z,27.60
2022-10-28T10:36:00.602Z,27.70
2022-10-28T10:38:28.782Z,27.70
2022-10-28T10:40:55.652Z,27.60
2022-10-28T10:43:34.502Z,27.70
2022-10-28T10:46:16.359Z,27.80
2022-10-28T10:48:43.660Z,28.00
2022-10-28T10:51:22.832Z,28.20
2022-10-28T10:53:53.028Z,28.20
2022-10-28T10:56:26.219Z,28.10
2022-10-28T10:58:55.596Z,28.10
2022-10-28T11:01:26.486Z,28.10
2022-10-28T11:03:59.960Z,28.10
2022-10-28T11:06:30.274Z,28.20
2022-10-28T11:08:59.733Z,28.20
2022-10-28T11:11:46.664Z,28.30
2022-10-28T11:14:13.385Z,28.30
2022-10-28T11:16:51.649Z,28.30
2022-10-28T11:19:28.791Z,28.20
2022-10-28T11:22:28.526Z,28.10
2022-10-28T11:25:22.736Z,28.20
2022-10-28T11:27:58.797Z,28.30
2022-10-28T11:31:18.520Z,28.30
2022-10-28T11:34:15.113Z,28.20
2022-10-28T11:37:16.600Z,28.30
2022-10-28T11:39:50.140Z,28.20
2022-10-28T11:42:39.491Z,28.20
2022-10-28T11:45:18.556Z,28.30
2022-10-28T11:48:02.073Z,28.30
2022-10-28T11:50:35.449Z,28.40
2022-10-28T11:53:17.569Z,28.50
2022-10-28T11:56:07.358Z,28.50
2022-10-28T11:58:43.335Z,28.70
2022-10-28T12:12:32.506Z,28.40
2022-10-28T12:18:58.301Z,28.10
2022-10-28T12:21:52.444Z,28.00
2022-10-28T12:24:25.266Z,28.00
2022-10-28T12:26:59.336Z,27.90
2022-10-28T12:29:37.115Z,27.90
2022-10-28T12:32:11.250Z,27.80
2022-10-28T12:34:45.440Z,27.80
2022-10-28T12:37:42.113Z,27.80
2022-10-28T12:40:26.096Z,27.80
2022-10-28T12:42:59.803Z,27.60
2022-10-28T12:45:28.552Z,27.40
2022-10-28T12:47:59.223Z,27.30
2022-10-28T12:50:52.439Z,27.20
2022-10-28T12:53:35.790Z,27.20
2022-10-28T12:56:06.734Z,27.30
2022-10-28T12:58:38.365Z,27.10
2022-10-28T13:01:13.144Z,27.10
2022-10-28T13:03:40.543Z,27.00
2022-10-28T13:06:26.181Z,27.00
2022-10-28T13:09:06.613Z,27.00
2022-10-28T13:12:00.865Z,27.00
2022-10-28T13:15:04.530Z,26.80
2022-10-28T13:18:00.743Z,26.80
2022-10-28T13:21:10.845Z,26.70
2022-10-28T13:23:59.079Z,26.60
2022-10-28T13:26:35.415Z,26.60
2022-10-28T13:29:03.086Z,26.60
2022-10-28T13:31:44.939Z,26.60
2022-10-28T13:34:14.571Z,26.50
2022-10-28T13:36:45.422Z,26.40
2022-10-28T13:39:29.060Z,26.40
2022-10-28T13:42:14.771Z,26.40
2022-10-28T13:44:50.302Z,26.50
2022-10-28T13:47:16.919Z,26.50
2022-10-28T13:50:08.811Z,26.50
2022-10-28T13:52:37.865Z,26.60
2022-10-28T13:55:13.848Z,26.60
2022-10-28T13:57:44.337Z,26.50
2022-10-28T14:00:21.363Z,26.60
2022-10-28T14:03:00.556Z,26.60
2022-10-28T14:05:37.047Z,26.70
2022-10-28T14:08:07.087Z,26.80
2022-10-28T14:10:37.915Z,26.90
2022-10-28T14:15:42.930Z,26.80
2022-10-28T14:18:41.819Z,26.60
2022-10-28T14:21:04.051Z,26.40
2022-10-28T14:23:33.449Z,26.10
2022-10-28T14:26:04.432Z,26.00
2022-10-28T14:28:31.059Z,25.80
2022-10-28T14:31:11.347Z,25.70
2022-10-28T14:33:46.230Z,25.60
2022-10-28T14:36:19.344Z,25.50
2022-10-28T14:39:04.201Z,25.30
2022-10-28T14:41:42.242Z,25.20
2022-10-28T14:44:28.460Z,25.00
2022-10-28T14:47:04.397Z,24.90
2022-10-28T14:49:33.840Z,24.80
2022-10-28T14:52:08.672Z,24.70
2022-10-28T14:54:51.578Z,24.60
2022-10-28T14:57:22.725Z,24.50
2022-10-28T14:59:51.593Z,24.50
2022-10-28T15:02:28.287Z,24.30
2022-10-28T15:05:32.512Z,24.30
2022-10-28T15:08:03.199Z,24.10
2022-10-28T15:10:47.413Z,23.90
2022-10-28T15:13:25.606Z,23.80
2022-10-28T15:15:59.409Z,23.70
2022-10-28T15:18:29.720Z,23.60
2022-10-28T15:21:11.248Z,23.60
2022-10-28T15:23:38.196Z,23.40
2022-10-28T15:26:12.009Z,23.40
2022-10-28T15:28:39.347Z,23.30
2022-10-28T15:31:06.239Z,23.10
2022-10-28T15:33:39.077Z,23.00
2022-10-28T15:36:17.566Z,22.90
2022-10-28T15:39:04.655Z,22.80
2022-10-28T15:41:41.610Z,22.70
2022-10-28T15:44:30.302Z,22.50
2022-10-28T15:46:58.385Z,22.40
2022-10-28T15:49:40.202Z,22.30
2022-10-28T15:52:27.382Z,22.10
2022-10-28T15:54:55.637Z,22.00
2022-10-28T15:57:25.046Z,21.90
2022-10-28T16:00:23.041Z,21.80
2022-10-28T16:02:56.129Z,21.60
2022-10-28T16:05:32.144Z,21.60
2022-10-28T16:08:07.372Z,21.50
2022-10-28T16:11:01.931Z,21.40
2022-10-28T16:13:34.594Z,21.30
2022-10-28T16:16:13.188Z,21.20
2022-10-28T16:18:52.299Z,21.20
2022-10-28T16:21:25.282Z,21.10
2022-10-28T16:23:58.884Z,21.00
2022-10-28T16:26:26.692Z,21.00
2022-10-28T16:28:53.420Z,20.90
2022-10-28T16:31:22.864Z,20.90
2022-10-28T16:33:49.636Z,20.80
2022-10-28T16:36:18.380Z,20.70
2022-10-28T16:38:44.964Z,20.70
2022-10-28T16:41:19.444Z,20.70
2022-10-28T16:43:46.557Z,20.60
2022-10-28T16:46:14.577Z,20.60
2022-10-28T16:48:41.638Z,20.50
2022-10-28T16:51:17.489Z,20.50
2022-10-28T16:53:47.238Z,20.50
2022-10-28T16:56:16.507Z,20.50
2022-10-28T16:58:43.487Z,20.50
2022-10-28T17:01:10.933Z,20.50
2022-10-28T17:03:37.578Z,20.40
2022-10-28T17:06:04.439Z,20.40
2022-10-28T17:09:00.628Z,20.40
2022-10-28T17:11:17.841Z,20.30
2022-10-28T17:13:44.505Z,20.30
2022-10-28T17:16:12.813Z,20.30
2022-10-28T17:18:40.091Z,20.20
2022-10-28T17:21:06.912Z,20.20
2022-10-28T17:23:35.987Z,20.20
2022-10-28T17:26:02.952Z,20.20
2022-10-28T17:28:29.762Z,20.10
2022-10-28T17:31:05.025Z,20.10
2022-10-28T17:33:31.863Z,20.10
2022-10-28T17:36:06.471Z,20.10
2022-10-28T17:38:33.055Z,20.00
2022-10-28T17:40:59.672Z,20.00
2022-10-28T17:43:26.518Z,20.00
2022-10-28T17:46:02.262Z,19.90
2022-10-28T17:48:29.523Z,19.90
2022-10-28T17:50:56.263Z,19.90
2022-10-28T17:53:25.782Z,19.90
2022-10-28T17:56:00.499Z,19.80
2022-10-28T17:58:27.879Z,19.80
2022-10-28T18:01:03.693Z,19.80
2022-10-28T18:03:34.100Z,19.80
2022-10-28T18:06:05.393Z,19.80
2022-10-28T18:08:41.575Z,19.80
2022-10-28T18:11:14.551Z,19.80
2022-10-28T18:13:48.939Z,19.70
2022-10-28T18:16:22.771Z,19.80
2022-10-28T18:18:50.750Z,19.80
2022-10-28T18:21:18.169Z,19.80
2022-10-28T18:23:44.826Z,19.80
2022-10-28T18:26:13.840Z,19.80
2022-10-28T18:28:44.300Z,19.80
2022-10-28T18:31:15.977Z,19.80
2022-10-28T18:33:43.573Z,19.80
2022-10-28T18:36:15.775Z,19.80
2022-10-28T18:38:42.891Z,19.70
2022-10-28T18:41:13.726Z,19.70
2022-10-28T18:43:41.234Z,19.60
2022-10-28T18:46:08.374Z,19.60
2022-10-28T18:48:35.915Z,19.60
2022-10-28T18:51:12.622Z,19.60
2022-10-28T18:54:09.240Z,19.50
2022-10-28T18:56:35.814Z,19.60
2022-10-28T18:59:03.988Z,19.60
2022-10-28T19:01:34.099Z,19.60
2022-10-28T19:04:16.314Z,19.70
2022-10-28T19:06:46.896Z,19.70
2022-10-28T19:09:13.692Z,19.70
2022-10-28T19:11:40.272Z,19.70
2022-10-28T19:14:07.071Z,19.60
2022-10-28T19:16:34.679Z,19.60
2022-10-28T19:19:03.267Z,19.70
2022-10-28T19:21:30.258Z,19.80
2022-10-28T19:23:57.165Z,19.80
2022-10-28T19:26:24.063Z,19.90
2022-10-28T19:28:51.773Z,19.90
2022-10-28T19:31:24.203Z,19.90
2022-10-28T19:33:52.841Z,19.90
2022-10-28T19:36:24.924Z,19.90
2022-10-28T19:38:55.912Z,19.90
2022-10-28T19:41:24.912Z,20.00
2022-10-28T19:43:58.302Z,20.00
2022-10-28T19:46:27.388Z,20.00
2022-10-28T19:48:56.535Z,20.00
2022-10-28T19:51:29.054Z,20.00
2022-10-28T19:54:00.790Z,20.00
2022-10-28T19:56:29.021Z,20.00
2022-10-28T19:58:58.061Z,20.00
2022-10-28T20:01:26.596Z,20.00
2022-10-28T20:03:54.454Z,20.00
2022-10-28T20:06:23.165Z,20.00
2022-10-28T20:08:50.558Z,20.00
2022-10-28T20:11:25.864Z,20.00
2022-10-28T20:13:58.658Z,20.00
2022-10-28T20:16:25.719Z,20.00
2022-10-28T20:18:54.207Z,20.00
2022-10-28T20:21:22.073Z,20.10
2022-10-28T20:26:18.304Z,20.10
2022-10-28T20:28:45.031Z,20.10
2022-10-28T20:31:17.833Z,20.20
2022-10-28T20:33:49.505Z,20.20
2022-10-28T20:36:24.887Z,20.20
2022-10-28T20:38:55.857Z,20.20
2022-10-28T20:41:23.603Z,20.30
2022-10-28T20:43:51.653Z,20.30
2022-10-28T20:46:20.162Z,20.30
2022-10-28T20:48:47.910Z,20.30
2022-10-28T20:51:14.908Z,20.20
2022-10-28T20:53:42.064Z,20.30
2022-10-28T20:56:18.619Z,20.20
2022-10-28T20:58:45.409Z,20.20
2022-10-28T21:01:15.922Z,20.20
2022-10-28T21:03:43.924Z,20.10
2022-10-28T21:08:44.264Z,20.10
2022-10-28T21:11:13.574Z,20.10
2022-10-28T21:13:41.175Z,20.00
2022-10-28T21:16:10.383Z,20.00
2022-10-28T21:18:38.332Z,20.00
2022-10-28T21:21:05.720Z,20.00
2022-10-28T21:23:32.372Z,19.90
2022-10-28T21:26:01.255Z,19.90
2022-10-28T21:28:29.020Z,19.90
2022-10-28T21:31:16.591Z,19.90
2022-10-28T21:33:43.720Z,19.80
2022-10-28T21:36:15.443Z,19.80
2022-10-28T21:38:42.591Z,19.80
2022-10-28T21:41:13.475Z,19.80
2022-10-28T21:43:42.187Z,19.80
2022-10-28T21:46:09.342Z,19.80
2022-10-28T21:48:37.038Z,19.70
2022-10-28T21:51:08.629Z,19.70
2022-10-28T21:53:39.063Z,19.60
2022-10-28T21:56:16.630Z,19.60
2022-10-28T21:58:44.378Z,19.60
2022-10-28T22:01:15.124Z,19.50
2022-10-28T22:03:42.015Z,19.50
2022-10-28T22:06:09.164Z,19.50
2022-10-28T22:08:35.848Z,19.50
2022-10-28T22:11:04.235Z,19.50
2022-10-28T22:13:31.270Z,19.50
2022-10-28T22:16:06.800Z,19.50
2022-10-28T22:18:35.588Z,19.40
2022-10-28T22:21:07.084Z,19.40
2022-10-28T22:23:34.025Z,19.30
2022-10-28T22:26:05.718Z,19.30
2022-10-28T22:28:32.379Z,19.20
2022-10-28T22:31:11.508Z,19.20
2022-10-28T22:33:38.800Z,19.20
2022-10-28T22:36:08.464Z,19.10
2022-10-28T22:38:35.384Z,19.00
2022-10-28T22:41:07.298Z,19.00
2022-10-28T22:43:34.548Z,19.00
2022-10-28T22:46:01.307Z,19.00
2022-10-28T22:48:28.088Z,18.90
2022-10-28T22:50:55.047Z,18.90
2022-10-28T22:53:23.246Z,18.80
2022-10-28T22:55:50.200Z,18.80
2022-10-28T22:58:16.995Z,18.70
2022-10-28T23:00:44.361Z,18.60
2022-10-28T23:03:12.044Z,18.60
2022-10-28T23:05:39.518Z,18.50
2022-10-28T23:08:06.773Z,18.50
2022-10-28T23:10:33.404Z,18.40
2022-10-28T23:13:01.939Z,18.40
2022-10-28T23:15:29.257Z,18.40
2022-10-28T23:17:56.474Z,18.30
2022-10-28T23:20:24.778Z,18.30
2022-10-28T23:22:54.450Z,18.30
2022-10-28T23:25:20.979Z,18.30
2022-10-28T23:27:47.558Z,18.20
2022-10-28T23:30:14.314Z,18.30
2022-10-28T23:32:40.903Z,18.30
2022-10-28T23:35:07.696Z,18.30
2022-10-28T23:37:34.307Z,18.20
2022-10-28T23:40:00.941Z,18.10
2022-10-28T23:42:27.645Z,18.10
2022-10-28T23:44:54.215Z,18.10
2022-10-28T23:47:20.781Z,18.10
2022-10-28T23:49:47.380Z,18.00
2022-10-28T23:52:14.116Z,18.00
2022-10-28T23:54:40.647Z,18.00
2022-10-28T23:57:08.281Z,17.90
2022-10-28T23:59:34.895Z,17.90
